sensor_id;sensor_type;location;lat;lon;timestamp;P1;P2;P0
56069;PMS5003;41944;52.078;-0.058;2023-12-04T00:02:20;23;19;
56069;PMS5003;41944;52.078;-0.058;2023-12-04T00:04:47;22;19;
56069;PMS5003;41944;52.078;-0.058;2023-12-04T00:07:13;17;17;
56069;PMS5003;41944;52.078;-0.058;2023-12-04T00:09:40;17;15;
56069;PMS5003;41944;52.078;-0.058;2023-12-04T00:12:07;16;15;
56069;PMS5003;41944;52.078;-0.058;2023-12-04T00:14:35;32;26;
56069;PMS5003;41944;52.078;-0.058;2023-12-04T00:17:02;59;48;
56069;PMS5003;41944;52.078;-0.058;2023-12-04T00:19:29;108;81;
56069;PMS5003;41944;52.078;-0.058;2023-12-04T00:21:56;68;61;
56069;PMS5003;41944;52.078;-0.058;2023-12-04T00:24:24;28;24;
56069;PMS5003;41944;52.078;-0.058;2023-12-04T00:26:50;29;23;
56069;PMS5003;41944;52.078;-0.058;2023-12-04T00:29:18;26;25;
56069;PMS5003;41944;52.078;-0.058;2023-12-04T00:31:45;60;52;
56069;PMS5003;41944;52.078;-0.058;2023-12-04T00:34:11;21;16;
56069;PMS5003;41944;52.078;-0.058;2023-12-04T00:36:38;35;28;
56069;PMS5003;41944;52.078;-0.058;2023-12-04T00:39:05;15;14;
56069;PMS5003;41944;52.078;-0.058;2023-12-04T00:41:32;17;14;
56069;PMS5003;41944;52.078;-0.058;2023-12-04T00:43:59;15;14;
56069;PMS5003;41944;52.078;-0.058;2023-12-04T00:46:26;18;17;
56069;PMS5003;41944;52.078;-0.058;2023-12-04T00:48:53;22;18;
56069;PMS5003;41944;52.078;-0.058;2023-12-04T00:51:20;20;17;
56069;PMS5003;41944;52.078;-0.058;2023-12-04T00:53:48;14;13;
56069;PMS5003;41944;52.078;-0.058;2023-12-04T00:56:15;17;14;
56069;PMS5003;41944;52.078;-0.058;2023-12-04T00:58:41;20;18;
56069;PMS5003;41944;52.078;-0.058;2023-12-04T01:01:08;13;10;
56069;PMS5003;41944;52.078;-0.058;2023-12-04T01:03:35;16;14;
56069;PMS5003;41944;52.078;-0.058;2023-12-04T01:06:04;17;13;
56069;PMS5003;41944;52.078;-0.058;2023-12-04T01:08:32;11;11;
56069;PMS5003;41944;52.078;-0.058;2023-12-04T01:10:59;15;15;
56069;PMS5003;41944;52.078;-0.058;2023-12-04T01:13:26;14;13;
56069;PMS5003;41944;52.078;-0.058;2023-12-04T01:15:53;18;16;
56069;PMS5003;41944;52.078;-0.058;2023-12-04T01:18:20;17;13;
56069;PMS5003;41944;52.078;-0.058;2023-12-04T01:20:47;15;14;
56069;PMS5003;41944;52.078;-0.058;2023-12-04T01:23:13;14;13;
56069;PMS5003;41944;52.078;-0.058;2023-12-04T01:25:40;16;15;
56069;PMS5003;41944;52.078;-0.058;2023-12-04T01:28:07;20;19;
56069;PMS5003;41944;52.078;-0.058;2023-12-04T01:30:34;17;15;
56069;PMS5003;41944;52.078;-0.058;2023-12-04T01:33:02;21;17;
56069;PMS5003;41944;52.078;-0.058;2023-12-04T01:35:29;19;15;
56069;PMS5003;41944;52.078;-0.058;2023-12-04T01:37:55;15;14;
56069;PMS5003;41944;52.078;-0.058;2023-12-04T01:40:22;14;13;
56069;PMS5003;41944;52.078;-0.058;2023-12-04T01:42:49;16;13;
56069;PMS5003;41944;52.078;-0.058;2023-12-04T01:45:16;18;15;
56069;PMS5003;41944;52.078;-0.058;2023-12-04T01:47:43;15;14;
56069;PMS5003;41944;52.078;-0.058;2023-12-04T01:50:10;16;11;
56069;PMS5003;41944;52.078;-0.058;2023-12-04T01:52:38;16;14;
56069;PMS5003;41944;52.078;-0.058;2023-12-04T01:55:06;12;12;
56069;PMS5003;41944;52.078;-0.058;2023-12-04T01:57:36;15;15;
56069;PMS5003;41944;52.078;-0.058;2023-12-04T02:00:03;17;12;
56069;PMS5003;41944;52.078;-0.058;2023-12-04T02:02:32;13;13;
56069;PMS5003;41944;52.078;-0.058;2023-12-04T02:04:59;19;16;
56069;PMS5003;41944;52.078;-0.058;2023-12-04T02:07:28;15;14;
56069;PMS5003;41944;52.078;-0.058;2023-12-04T02:09:55;14;11;
56069;PMS5003;41944;52.078;-0.058;2023-12-04T02:12:22;13;12;
56069;PMS5003;41944;52.078;-0.058;2023-12-04T02:14:50;17;14;
56069;PMS5003;41944;52.078;-0.058;2023-12-04T02:17:17;13;12;
56069;PMS5003;41944;52.078;-0.058;2023-12-04T02:19:46;16;14;
56069;PMS5003;41944;52.078;-0.058;2023-12-04T02:22:13;12;12;
56069;PMS5003;41944;52.078;-0.058;2023-12-04T02:24:39;12;9;
56069;PMS5003;41944;52.078;-0.058;2023-12-04T02:27:08;13;9;
56069;PMS5003;41944;52.078;-0.058;2023-12-04T02:29:41;14;11;
56069;PMS5003;41944;52.078;-0.058;2023-12-04T02:32:14;15;13;
56069;PMS5003;41944;52.078;-0.058;2023-12-04T02:34:43;14;10;
56069;PMS5003;41944;52.078;-0.058;2023-12-04T02:37:12;12;10;
56069;PMS5003;41944;52.078;-0.058;2023-12-04T02:39:40;12;12;
56069;PMS5003;41944;52.078;-0.058;2023-12-04T02:42:08;10;10;
56069;PMS5003;41944;52.078;-0.058;2023-12-04T02:44:35;10;10;
56069;PMS5003;41944;52.078;-0.058;2023-12-04T02:47:02;12;11;
56069;PMS5003;41944;52.078;-0.058;2023-12-04T02:49:29;8;8;
56069;PMS5003;41944;52.078;-0.058;2023-12-04T02:51:56;14;11;
56069;PMS5003;41944;52.078;-0.058;2023-12-04T02:54:23;15;11;
56069;PMS5003;41944;52.078;-0.058;2023-12-04T02:56:50;9;9;
56069;PMS5003;41944;52.078;-0.058;2023-12-04T02:59:17;13;12;
56069;PMS5003;41944;52.078;-0.058;2023-12-04T03:01:44;13;9;
56069;PMS5003;41944;52.078;-0.058;2023-12-04T03:04:11;8;8;
56069;PMS5003;41944;52.078;-0.058;2023-12-04T03:06:39;11;9;
56069;PMS5003;41944;52.078;-0.058;2023-12-04T03:09:05;9;8;
56069;PMS5003;41944;52.078;-0.058;2023-12-04T03:11:33;12;10;
56069;PMS5003;41944;52.078;-0.058;2023-12-04T03:14:00;8;8;
56069;PMS5003;41944;52.078;-0.058;2023-12-04T03:16:27;10;6;
56069;PMS5003;41944;52.078;-0.058;2023-12-04T03:18:54;8;7;
56069;PMS5003;41944;52.078;-0.058;2023-12-04T03:21:21;12;9;
56069;PMS5003;41944;52.078;-0.058;2023-12-04T03:23:48;10;9;
56069;PMS5003;41944;52.078;-0.058;2023-12-04T03:26:15;12;9;
56069;PMS5003;41944;52.078;-0.058;2023-12-04T03:28:41;8;7;
56069;PMS5003;41944;52.078;-0.058;2023-12-04T03:31:09;13;9;
56069;PMS5003;41944;52.078;-0.058;2023-12-04T03:33:36;8;8;
56069;PMS5003;41944;52.078;-0.058;2023-12-04T03:36:03;7;7;
56069;PMS5003;41944;52.078;-0.058;2023-12-04T03:38:31;8;6;
56069;PMS5003;41944;52.078;-0.058;2023-12-04T03:40:58;8;7;
56069;PMS5003;41944;52.078;-0.058;2023-12-04T03:43:25;7;7;
56069;PMS5003;41944;52.078;-0.058;2023-12-04T03:45:51;7;6;
56069;PMS5003;41944;52.078;-0.058;2023-12-04T03:48:18;9;6;
56069;PMS5003;41944;52.078;-0.058;2023-12-04T03:50:45;7;6;
56069;PMS5003;41944;52.078;-0.058;2023-12-04T03:53:12;5;5;
56069;PMS5003;41944;52.078;-0.058;2023-12-04T03:55:39;10;6;
56069;PMS5003;41944;52.078;-0.058;2023-12-04T03:58:06;5;5;
56069;PMS5003;41944;52.078;-0.058;2023-12-04T04:00:33;6;6;
56069;PMS5003;41944;52.078;-0.058;2023-12-04T04:03:01;7;6;
56069;PMS5003;41944;52.078;-0.058;2023-12-04T04:05:28;5;5;
56069;PMS5003;41944;52.078;-0.058;2023-12-04T04:07:55;5;4;
56069;PMS5003;41944;52.078;-0.058;2023-12-04T04:10:22;6;5;
56069;PMS5003;41944;52.078;-0.058;2023-12-04T04:12:48;6;4;
56069;PMS5003;41944;52.078;-0.058;2023-12-04T04:15:16;7;7;
56069;PMS5003;41944;52.078;-0.058;2023-12-04T04:17:43;4;4;
56069;PMS5003;41944;52.078;-0.058;2023-12-04T04:20:10;4;4;
56069;PMS5003;41944;52.078;-0.058;2023-12-04T04:22:37;3;3;
56069;PMS5003;41944;52.078;-0.058;2023-12-04T04:25:05;5;5;
56069;PMS5003;41944;52.078;-0.058;2023-12-04T04:27:33;6;3;
56069;PMS5003;41944;52.078;-0.058;2023-12-04T04:30:01;6;5;
56069;PMS5003;41944;52.078;-0.058;2023-12-04T04:32:28;5;3;
56069;PMS5003;41944;52.078;-0.058;2023-12-04T04:34:55;4;4;
56069;PMS5003;41944;52.078;-0.058;2023-12-04T04:37:22;6;6;
56069;PMS5003;41944;52.078;-0.058;2023-12-04T04:39:49;4;4;
56069;PMS5003;41944;52.078;-0.058;2023-12-04T04:42:16;6;5;
56069;PMS5003;41944;52.078;-0.058;2023-12-04T04:44:43;7;6;
56069;PMS5003;41944;52.078;-0.058;2023-12-04T04:47:10;8;6;
56069;PMS5003;41944;52.078;-0.058;2023-12-04T04:49:37;6;5;
56069;PMS5003;41944;52.078;-0.058;2023-12-04T04:52:04;6;6;
56069;PMS5003;41944;52.078;-0.058;2023-12-04T04:54:32;5;5;
56069;PMS5003;41944;52.078;-0.058;2023-12-04T04:56:59;7;5;
56069;PMS5003;41944;52.078;-0.058;2023-12-04T04:59:26;6;6;
56069;PMS5003;41944;52.078;-0.058;2023-12-04T05:01:53;6;3;
56069;PMS5003;41944;52.078;-0.058;2023-12-04T05:04:20;5;5;
56069;PMS5003;41944;52.078;-0.058;2023-12-04T05:06:47;6;5;
56069;PMS5003;41944;52.078;-0.058;2023-12-04T05:09:15;6;6;
56069;PMS5003;41944;52.078;-0.058;2023-12-04T05:11:42;7;7;
56069;PMS5003;41944;52.078;-0.058;2023-12-04T05:14:09;4;4;
56069;PMS5003;41944;52.078;-0.058;2023-12-04T05:16:36;7;5;
56069;PMS5003;41944;52.078;-0.058;2023-12-04T05:19:03;5;5;
56069;PMS5003;41944;52.078;-0.058;2023-12-04T05:21:30;8;6;
56069;PMS5003;41944;52.078;-0.058;2023-12-04T05:23:57;8;6;
56069;PMS5003;41944;52.078;-0.058;2023-12-04T05:26:24;7;5;
56069;PMS5003;41944;52.078;-0.058;2023-12-04T05:28:51;8;6;
56069;PMS5003;41944;52.078;-0.058;2023-12-04T05:31:18;8;4;
56069;PMS5003;41944;52.078;-0.058;2023-12-04T05:33:45;8;5;
56069;PMS5003;41944;52.078;-0.058;2023-12-04T05:36:11;4;4;
56069;PMS5003;41944;52.078;-0.058;2023-12-04T05:38:38;6;5;
56069;PMS5003;41944;52.078;-0.058;2023-12-04T05:41:05;11;6;
56069;PMS5003;41944;52.078;-0.058;2023-12-04T05:43:32;5;5;
56069;PMS5003;41944;52.078;-0.058;2023-12-04T05:46:00;5;5;
56069;PMS5003;41944;52.078;-0.058;2023-12-04T05:48:27;8;5;
56069;PMS5003;41944;52.078;-0.058;2023-12-04T05:50:54;6;5;
56069;PMS5003;41944;52.078;-0.058;2023-12-04T05:53:20;7;7;
56069;PMS5003;41944;52.078;-0.058;2023-12-04T05:55:47;6;6;
56069;PMS5003;41944;52.078;-0.058;2023-12-04T05:58:14;7;7;
56069;PMS5003;41944;52.078;-0.058;2023-12-04T06:00:41;8;6;
56069;PMS5003;41944;52.078;-0.058;2023-12-04T06:03:08;9;6;
56069;PMS5003;41944;52.078;-0.058;2023-12-04T06:05:35;9;8;
56069;PMS5003;41944;52.078;-0.058;2023-12-04T06:08:02;10;9;
56069;PMS5003;41944;52.078;-0.058;2023-12-04T06:10:30;7;7;
56069;PMS5003;41944;52.078;-0.058;2023-12-04T06:12:58;11;6;
56069;PMS5003;41944;52.078;-0.058;2023-12-04T06:15:24;9;7;
56069;PMS5003;41944;52.078;-0.058;2023-12-04T06:17:51;9;8;
56069;PMS5003;41944;52.078;-0.058;2023-12-04T06:20:18;11;10;
56069;PMS5003;41944;52.078;-0.058;2023-12-04T06:22:45;11;8;
56069;PMS5003;41944;52.078;-0.058;2023-12-04T06:25:13;9;9;
56069;PMS5003;41944;52.078;-0.058;2023-12-04T06:27:41;14;8;
56069;PMS5003;41944;52.078;-0.058;2023-12-04T06:30:09;11;11;
56069;PMS5003;41944;52.078;-0.058;2023-12-04T06:32:37;13;12;
56069;PMS5003;41944;52.078;-0.058;2023-12-04T06:35:05;10;9;
56069;PMS5003;41944;52.078;-0.058;2023-12-04T06:37:34;15;13;
56069;PMS5003;41944;52.078;-0.058;2023-12-04T06:40:03;12;12;
56069;PMS5003;41944;52.078;-0.058;2023-12-04T06:42:31;14;11;
56069;PMS5003;41944;52.078;-0.058;2023-12-04T06:44:59;21;17;
56069;PMS5003;41944;52.078;-0.058;2023-12-04T06:47:27;13;11;
56069;PMS5003;41944;52.078;-0.058;2023-12-04T06:49:57;13;13;
56069;PMS5003;41944;52.078;-0.058;2023-12-04T06:52:24;13;12;
56069;PMS5003;41944;52.078;-0.058;2023-12-04T06:54:51;14;14;
56069;PMS5003;41944;52.078;-0.058;2023-12-04T06:57:18;15;13;
56069;PMS5003;41944;52.078;-0.058;2023-12-04T06:59:45;13;13;
56069;PMS5003;41944;52.078;-0.058;2023-12-04T07:02:12;16;11;
56069;PMS5003;41944;52.078;-0.058;2023-12-04T07:04:39;15;13;
56069;PMS5003;41944;52.078;-0.058;2023-12-04T07:07:06;20;14;
56069;PMS5003;41944;52.078;-0.058;2023-12-04T07:09:34;17;11;
56069;PMS5003;41944;52.078;-0.058;2023-12-04T07:12:01;16;13;
56069;PMS5003;41944;52.078;-0.058;2023-12-04T07:14:28;20;16;
56069;PMS5003;41944;52.078;-0.058;2023-12-04T07:16:55;12;11;
56069;PMS5003;41944;52.078;-0.058;2023-12-04T07:19:22;15;12;
56069;PMS5003;41944;52.078;-0.058;2023-12-04T07:21:49;15;15;
56069;PMS5003;41944;52.078;-0.058;2023-12-04T07:24:16;12;10;
56069;PMS5003;41944;52.078;-0.058;2023-12-04T07:26:42;14;11;
56069;PMS5003;41944;52.078;-0.058;2023-12-04T07:29:09;18;16;
56069;PMS5003;41944;52.078;-0.058;2023-12-04T07:31:37;13;11;
56069;PMS5003;41944;52.078;-0.058;2023-12-04T07:34:04;17;14;
56069;PMS5003;41944;52.078;-0.058;2023-12-04T07:36:31;21;17;
56069;PMS5003;41944;52.078;-0.058;2023-12-04T07:38:58;15;13;
56069;PMS5003;41944;52.078;-0.058;2023-12-04T07:41:24;17;16;
56069;PMS5003;41944;52.078;-0.058;2023-12-04T07:43:51;17;17;
56069;PMS5003;41944;52.078;-0.058;2023-12-04T07:46:18;17;14;
56069;PMS5003;41944;52.078;-0.058;2023-12-04T07:48:45;13;11;
56069;PMS5003;41944;52.078;-0.058;2023-12-04T07:51:12;33;30;
56069;PMS5003;41944;52.078;-0.058;2023-12-04T07:53:39;11;11;
56069;PMS5003;41944;52.078;-0.058;2023-12-04T07:56:07;11;9;
56069;PMS5003;41944;52.078;-0.058;2023-12-04T07:58:34;11;7;
56069;PMS5003;41944;52.078;-0.058;2023-12-04T08:01:01;9;9;
56069;PMS5003;41944;52.078;-0.058;2023-12-04T08:03:29;11;8;
56069;PMS5003;41944;52.078;-0.058;2023-12-04T08:05:56;15;11;
56069;PMS5003;41944;52.078;-0.058;2023-12-04T08:08:23;10;10;
56069;PMS5003;41944;52.078;-0.058;2023-12-04T08:10:50;8;7;
56069;PMS5003;41944;52.078;-0.058;2023-12-04T08:13:17;16;11;
56069;PMS5003;41944;52.078;-0.058;2023-12-04T08:15:44;10;9;
56069;PMS5003;41944;52.078;-0.058;2023-12-04T08:18:11;10;8;
56069;PMS5003;41944;52.078;-0.058;2023-12-04T08:20:38;8;8;
56069;PMS5003;41944;52.078;-0.058;2023-12-04T08:23:05;13;11;
56069;PMS5003;41944;52.078;-0.058;2023-12-04T08:25:32;9;9;
56069;PMS5003;41944;52.078;-0.058;2023-12-04T08:27:59;10;10;
56069;PMS5003;41944;52.078;-0.058;2023-12-04T08:30:26;18;14;
56069;PMS5003;41944;52.078;-0.058;2023-12-04T08:32:53;33;28;
56069;PMS5003;41944;52.078;-0.058;2023-12-04T08:35:20;11;11;
56069;PMS5003;41944;52.078;-0.058;2023-12-04T08:37:47;12;11;
56069;PMS5003;41944;52.078;-0.058;2023-12-04T08:40:14;18;14;
56069;PMS5003;41944;52.078;-0.058;2023-12-04T08:42:41;18;16;
56069;PMS5003;41944;52.078;-0.058;2023-12-04T08:45:09;9;9;
56069;PMS5003;41944;52.078;-0.058;2023-12-04T08:47:36;14;12;
56069;PMS5003;41944;52.078;-0.058;2023-12-04T08:50:03;11;11;
56069;PMS5003;41944;52.078;-0.058;2023-12-04T08:52:31;12;10;
56069;PMS5003;41944;52.078;-0.058;2023-12-04T08:54:59;6;6;
56069;PMS5003;41944;52.078;-0.058;2023-12-04T08:57:26;14;14;
56069;PMS5003;41944;52.078;-0.058;2023-12-04T08:59:53;11;11;
56069;PMS5003;41944;52.078;-0.058;2023-12-04T09:02:20;16;13;
56069;PMS5003;41944;52.078;-0.058;2023-12-04T09:04:48;9;7;
56069;PMS5003;41944;52.078;-0.058;2023-12-04T09:07:15;9;9;
56069;PMS5003;41944;52.078;-0.058;2023-12-04T09:09:42;13;11;
56069;PMS5003;41944;52.078;-0.058;2023-12-04T09:12:09;18;17;
56069;PMS5003;41944;52.078;-0.058;2023-12-04T09:14:36;8;8;
56069;PMS5003;41944;52.078;-0.058;2023-12-04T09:17:03;11;9;
56069;PMS5003;41944;52.078;-0.058;2023-12-04T09:19:31;10;8;
56069;PMS5003;41944;52.078;-0.058;2023-12-04T09:21:58;10;8;
56069;PMS5003;41944;52.078;-0.058;2023-12-04T09:24:25;12;9;
56069;PMS5003;41944;52.078;-0.058;2023-12-04T09:26:52;13;8;
56069;PMS5003;41944;52.078;-0.058;2023-12-04T09:29:19;7;7;
56069;PMS5003;41944;52.078;-0.058;2023-12-04T09:31:46;12;10;
56069;PMS5003;41944;52.078;-0.058;2023-12-04T09:34:12;11;9;
56069;PMS5003;41944;52.078;-0.058;2023-12-04T09:36:39;9;9;
56069;PMS5003;41944;52.078;-0.058;2023-12-04T09:39:06;14;11;
56069;PMS5003;41944;52.078;-0.058;2023-12-04T09:41:34;21;19;
56069;PMS5003;41944;52.078;-0.058;2023-12-04T09:44:03;12;10;
56069;PMS5003;41944;52.078;-0.058;2023-12-04T09:46:30;13;9;
56069;PMS5003;41944;52.078;-0.058;2023-12-04T09:48:57;11;10;
56069;PMS5003;41944;52.078;-0.058;2023-12-04T09:51:24;13;10;
56069;PMS5003;41944;52.078;-0.058;2023-12-04T09:53:54;9;9;
56069;PMS5003;41944;52.078;-0.058;2023-12-04T09:56:21;11;11;
56069;PMS5003;41944;52.078;-0.058;2023-12-04T09:58:50;8;8;
56069;PMS5003;41944;52.078;-0.058;2023-12-04T10:01:24;9;8;
56069;PMS5003;41944;52.078;-0.058;2023-12-04T10:03:50;14;12;
56069;PMS5003;41944;52.078;-0.058;2023-12-04T10:06:17;7;7;
56069;PMS5003;41944;52.078;-0.058;2023-12-04T10:08:46;21;21;
56069;PMS5003;41944;52.078;-0.058;2023-12-04T10:11:12;16;15;
56069;PMS5003;41944;52.078;-0.058;2023-12-04T10:13:40;9;9;
56069;PMS5003;41944;52.078;-0.058;2023-12-04T10:16:07;8;8;
56069;PMS5003;41944;52.078;-0.058;2023-12-04T10:18:35;13;10;
56069;PMS5003;41944;52.078;-0.058;2023-12-04T10:21:03;7;7;
56069;PMS5003;41944;52.078;-0.058;2023-12-04T10:23:37;11;11;
56069;PMS5003;41944;52.078;-0.058;2023-12-04T10:26:06;7;7;
56069;PMS5003;41944;52.078;-0.058;2023-12-04T10:28:33;7;7;
56069;PMS5003;41944;52.078;-0.058;2023-12-04T10:31:02;10;10;
56069;PMS5003;41944;52.078;-0.058;2023-12-04T10:33:29;10;8;
56069;PMS5003;41944;52.078;-0.058;2023-12-04T10:35:57;12;10;
56069;PMS5003;41944;52.078;-0.058;2023-12-04T10:38:24;7;7;
56069;PMS5003;41944;52.078;-0.058;2023-12-04T10:40:51;13;11;
56069;PMS5003;41944;52.078;-0.058;2023-12-04T10:43:19;10;7;
56069;PMS5003;41944;52.078;-0.058;2023-12-04T10:45:48;8;7;
56069;PMS5003;41944;52.078;-0.058;2023-12-04T10:48:18;8;8;
56069;PMS5003;41944;52.078;-0.058;2023-12-04T10:50:46;13;10;
56069;PMS5003;41944;52.078;-0.058;2023-12-04T10:53:14;10;9;
56069;PMS5003;41944;52.078;-0.058;2023-12-04T10:55:42;9;7;
56069;PMS5003;41944;52.078;-0.058;2023-12-04T10:58:10;10;8;
56069;PMS5003;41944;52.078;-0.058;2023-12-04T11:00:39;14;10;
56069;PMS5003;41944;52.078;-0.058;2023-12-04T11:03:09;11;8;
56069;PMS5003;41944;52.078;-0.058;2023-12-04T11:05:39;10;8;
56069;PMS5003;41944;52.078;-0.058;2023-12-04T11:08:09;10;10;
56069;PMS5003;41944;52.078;-0.058;2023-12-04T11:10:45;10;10;
56069;PMS5003;41944;52.078;-0.058;2023-12-04T11:13:17;9;9;
56069;PMS5003;41944;52.078;-0.058;2023-12-04T11:15:53;11;9;
56069;PMS5003;41944;52.078;-0.058;2023-12-04T11:18:26;15;11;
56069;PMS5003;41944;52.078;-0.058;2023-12-04T11:20:58;10;7;
56069;PMS5003;41944;52.078;-0.058;2023-12-04T11:23:31;10;9;
56069;PMS5003;41944;52.078;-0.058;2023-12-04T11:25:58;10;8;
56069;PMS5003;41944;52.078;-0.058;2023-12-04T11:28:26;13;9;
56069;PMS5003;41944;52.078;-0.058;2023-12-04T11:30:54;16;11;
56069;PMS5003;41944;52.078;-0.058;2023-12-04T11:33:23;15;12;
56069;PMS5003;41944;52.078;-0.058;2023-12-04T11:35:50;10;10;
56069;PMS5003;41944;52.078;-0.058;2023-12-04T11:38:18;10;10;
56069;PMS5003;41944;52.078;-0.058;2023-12-04T11:40:46;8;8;
56069;PMS5003;41944;52.078;-0.058;2023-12-04T11:43:28;12;10;
56069;PMS5003;41944;52.078;-0.058;2023-12-04T11:46:07;12;11;
56069;PMS5003;41944;52.078;-0.058;2023-12-04T11:48:36;11;10;
56069;PMS5003;41944;52.078;-0.058;2023-12-04T11:51:03;13;13;
56069;PMS5003;41944;52.078;-0.058;2023-12-04T11:53:31;11;10;
56069;PMS5003;41944;52.078;-0.058;2023-12-04T11:55:58;11;10;
56069;PMS5003;41944;52.078;-0.058;2023-12-04T11:58:41;13;12;
56069;PMS5003;41944;52.078;-0.058;2023-12-04T12:01:08;13;13;
56069;PMS5003;41944;52.078;-0.058;2023-12-04T12:03:35;13;13;
56069;PMS5003;41944;52.078;-0.058;2023-12-04T12:06:02;12;10;
56069;PMS5003;41944;52.078;-0.058;2023-12-04T12:08:30;14;11;
56069;PMS5003;41944;52.078;-0.058;2023-12-04T12:10:57;17;15;
56069;PMS5003;41944;52.078;-0.058;2023-12-04T12:13:24;9;9;
56069;PMS5003;41944;52.078;-0.058;2023-12-04T12:15:52;15;14;
56069;PMS5003;41944;52.078;-0.058;2023-12-04T12:18:18;15;12;
56069;PMS5003;41944;52.078;-0.058;2023-12-04T12:20:47;15;13;
56069;PMS5003;41944;52.078;-0.058;2023-12-04T12:23:14;10;9;
56069;PMS5003;41944;52.078;-0.058;2023-12-04T12:25:42;10;10;
56069;PMS5003;41944;52.078;-0.058;2023-12-04T12:28:09;7;7;
56069;PMS5003;41944;52.078;-0.058;2023-12-04T12:30:36;13;11;
56069;PMS5003;41944;52.078;-0.058;2023-12-04T12:33:03;11;11;
56069;PMS5003;41944;52.078;-0.058;2023-12-04T12:35:30;10;9;
56069;PMS5003;41944;52.078;-0.058;2023-12-04T12:37:57;11;9;
56069;PMS5003;41944;52.078;-0.058;2023-12-04T12:40:27;11;10;
56069;PMS5003;41944;52.078;-0.058;2023-12-04T12:43:02;10;8;
56069;PMS5003;41944;52.078;-0.058;2023-12-04T12:45:38;17;11;
56069;PMS5003;41944;52.078;-0.058;2023-12-04T12:48:05;13;12;
56069;PMS5003;41944;52.078;-0.058;2023-12-04T12:50:33;11;9;
56069;PMS5003;41944;52.078;-0.058;2023-12-04T12:53:01;15;11;
56069;PMS5003;41944;52.078;-0.058;2023-12-04T12:55:29;16;11;
56069;PMS5003;41944;52.078;-0.058;2023-12-04T12:57:55;12;12;
56069;PMS5003;41944;52.078;-0.058;2023-12-04T13:00:22;16;12;
56069;PMS5003;41944;52.078;-0.058;2023-12-04T13:02:51;13;12;
56069;PMS5003;41944;52.078;-0.058;2023-12-04T13:05:19;14;13;
56069;PMS5003;41944;52.078;-0.058;2023-12-04T13:07:46;15;14;
56069;PMS5003;41944;52.078;-0.058;2023-12-04T13:10:13;25;21;
56069;PMS5003;41944;52.078;-0.058;2023-12-04T13:12:40;22;19;
56069;PMS5003;41944;52.078;-0.058;2023-12-04T13:15:07;36;31;
56069;PMS5003;41944;52.078;-0.058;2023-12-04T13:17:34;15;13;
56069;PMS5003;41944;52.078;-0.058;2023-12-04T13:20:02;15;12;
56069;PMS5003;41944;52.078;-0.058;2023-12-04T13:22:30;19;13;
56069;PMS5003;41944;52.078;-0.058;2023-12-04T13:24:56;13;13;
56069;PMS5003;41944;52.078;-0.058;2023-12-04T13:27:23;22;15;
56069;PMS5003;41944;52.078;-0.058;2023-12-04T13:29:50;17;15;
56069;PMS5003;41944;52.078;-0.058;2023-12-04T13:32:17;16;16;
56069;PMS5003;41944;52.078;-0.058;2023-12-04T13:34:44;13;13;
56069;PMS5003;41944;52.078;-0.058;2023-12-04T13:37:11;18;16;
56069;PMS5003;41944;52.078;-0.058;2023-12-04T13:39:38;19;18;
56069;PMS5003;41944;52.078;-0.058;2023-12-04T13:42:06;14;13;
56069;PMS5003;41944;52.078;-0.058;2023-12-04T13:44:33;15;15;
56069;PMS5003;41944;52.078;-0.058;2023-12-04T13:47:00;26;18;
56069;PMS5003;41944;52.078;-0.058;2023-12-04T13:49:27;20;18;
56069;PMS5003;41944;52.078;-0.058;2023-12-04T13:51:54;16;13;
56069;PMS5003;41944;52.078;-0.058;2023-12-04T13:54:21;17;15;
56069;PMS5003;41944;52.078;-0.058;2023-12-04T13:56:48;17;14;
56069;PMS5003;41944;52.078;-0.058;2023-12-04T13:59:15;26;23;
56069;PMS5003;41944;52.078;-0.058;2023-12-04T14:01:42;17;17;
56069;PMS5003;41944;52.078;-0.058;2023-12-04T14:04:09;20;15;
56069;PMS5003;41944;52.078;-0.058;2023-12-04T14:06:36;20;15;
56069;PMS5003;41944;52.078;-0.058;2023-12-04T14:09:03;18;16;
56069;PMS5003;41944;52.078;-0.058;2023-12-04T14:11:29;16;14;
56069;PMS5003;41944;52.078;-0.058;2023-12-04T14:13:56;21;16;
56069;PMS5003;41944;52.078;-0.058;2023-12-04T14:16:23;16;16;
56069;PMS5003;41944;52.078;-0.058;2023-12-04T14:18:50;18;14;
56069;PMS5003;41944;52.078;-0.058;2023-12-04T14:21:17;16;15;
56069;PMS5003;41944;52.078;-0.058;2023-12-04T14:23:44;19;16;
56069;PMS5003;41944;52.078;-0.058;2023-12-04T14:26:11;16;14;
56069;PMS5003;41944;52.078;-0.058;2023-12-04T14:28:38;26;23;
56069;PMS5003;41944;52.078;-0.058;2023-12-04T14:31:05;21;17;
56069;PMS5003;41944;52.078;-0.058;2023-12-04T14:33:33;24;23;
56069;PMS5003;41944;52.078;-0.058;2023-12-04T14:36:00;19;15;
56069;PMS5003;41944;52.078;-0.058;2023-12-04T14:38:27;19;15;
56069;PMS5003;41944;52.078;-0.058;2023-12-04T14:40:54;20;19;
56069;PMS5003;41944;52.078;-0.058;2023-12-04T14:43:21;20;16;
56069;PMS5003;41944;52.078;-0.058;2023-12-04T14:45:48;16;15;
56069;PMS5003;41944;52.078;-0.058;2023-12-04T14:48:15;22;15;
56069;PMS5003;41944;52.078;-0.058;2023-12-04T14:50:42;22;19;
56069;PMS5003;41944;52.078;-0.058;2023-12-04T14:53:09;18;16;
56069;PMS5003;41944;52.078;-0.058;2023-12-04T14:55:37;15;13;
56069;PMS5003;41944;52.078;-0.058;2023-12-04T14:58:04;18;17;
56069;PMS5003;41944;52.078;-0.058;2023-12-04T15:00:32;15;15;
56069;PMS5003;41944;52.078;-0.058;2023-12-04T15:02:59;16;16;
56069;PMS5003;41944;52.078;-0.058;2023-12-04T15:05:26;21;15;
56069;PMS5003;41944;52.078;-0.058;2023-12-04T15:07:53;23;23;
56069;PMS5003;41944;52.078;-0.058;2023-12-04T15:10:21;18;18;
56069;PMS5003;41944;52.078;-0.058;2023-12-04T15:12:48;19;15;
56069;PMS5003;41944;52.078;-0.058;2023-12-04T15:15:14;16;15;
56069;PMS5003;41944;52.078;-0.058;2023-12-04T15:17:41;15;14;
56069;PMS5003;41944;52.078;-0.058;2023-12-04T15:20:08;16;15;
56069;PMS5003;41944;52.078;-0.058;2023-12-04T15:22:36;19;16;
56069;PMS5003;41944;52.078;-0.058;2023-12-04T15:25:03;30;26;
56069;PMS5003;41944;52.078;-0.058;2023-12-04T15:27:31;21;21;
56069;PMS5003;41944;52.078;-0.058;2023-12-04T15:29:57;18;14;
56069;PMS5003;41944;52.078;-0.058;2023-12-04T15:32:24;21;20;
56069;PMS5003;41944;52.078;-0.058;2023-12-04T15:34:51;17;13;
56069;PMS5003;41944;52.078;-0.058;2023-12-04T15:37:18;20;18;
56069;PMS5003;41944;52.078;-0.058;2023-12-04T15:39:46;21;20;
56069;PMS5003;41944;52.078;-0.058;2023-12-04T15:42:13;23;21;
56069;PMS5003;41944;52.078;-0.058;2023-12-04T15:44:39;18;14;
56069;PMS5003;41944;52.078;-0.058;2023-12-04T15:47:07;16;15;
56069;PMS5003;41944;52.078;-0.058;2023-12-04T15:49:34;19;15;
56069;PMS5003;41944;52.078;-0.058;2023-12-04T15:52:01;16;16;
56069;PMS5003;41944;52.078;-0.058;2023-12-04T15:54:27;19;19;
56069;PMS5003;41944;52.078;-0.058;2023-12-04T15:56:54;20;19;
56069;PMS5003;41944;52.078;-0.058;2023-12-04T15:59:20;21;20;
56069;PMS5003;41944;52.078;-0.058;2023-12-04T16:01:47;24;23;
56069;PMS5003;41944;52.078;-0.058;2023-12-04T16:04:15;33;31;
56069;PMS5003;41944;52.078;-0.058;2023-12-04T16:06:42;31;31;
56069;PMS5003;41944;52.078;-0.058;2023-12-04T16:09:09;31;28;
56069;PMS5003;41944;52.078;-0.058;2023-12-04T16:11:37;34;26;
56069;PMS5003;41944;52.078;-0.058;2023-12-04T16:14:04;26;21;